FFL1201 KSJC-KBFI
Flight info
| Callsign | FFL1201 |
|---|---|
| Flight time | 1h 47m |
| Altitude | 40000 |
| Route | LOUPE1 HRNER DCT RBL DCT LMT J189 BTG OLM2 |
| Aircraft | CL60/M-SBDE1E2E3FGHIJ1J4J5J7M3RWXYZ/LB1V1D1 |
Departure
| Time | 2026-04-28 14:27 |
|---|---|
| Airport | Norman Y. Mineta San Jose International Airport (KSJC) |
Arrival
| Time | 2026-04-28 16:14 |
|---|---|
| Airport | King County International Airport - Boeing Field (KBFI) |
| Time | Latitude | Longitude | Altitude | Speed | Heading |
|---|---|---|---|---|---|
| 2026-04-28 14:10 | 37.36169 | -121.93437 | 47 ft | 0 kts | 227° |
| 2026-04-28 14:22 | 37.36168 | -121.93438 | 47 ft | 1 kts | 227° |
| 2026-04-28 14:22 | 37.36139 | -121.93457 | 48 ft | 5 kts | 156° |
| 2026-04-28 14:23 | 37.36116 | -121.93417 | 48 ft | 5 kts | 113° |
| 2026-04-28 14:23 | 37.36128 | -121.93381 | 48 ft | 5 kts | 51° |
| 2026-04-28 14:23 | 37.36162 | -121.93331 | 47 ft | 8 kts | 65° |
| 2026-04-28 14:23 | 37.36131 | -121.93261 | 48 ft | 10 kts | 112° |
| 2026-04-28 14:24 | 37.36158 | -121.93170 | 48 ft | 13 kts | 50° |
| 2026-04-28 14:24 | 37.36171 | -121.93066 | 48 ft | 15 kts | 137° |
| 2026-04-28 14:24 | 37.36089 | -121.92974 | 49 ft | 16 kts | 138° |
| 2026-04-28 14:24 | 37.35998 | -121.92876 | 50 ft | 18 kts | 139° |
| 2026-04-28 14:25 | 37.35901 | -121.92768 | 52 ft | 19 kts | 139° |
| 2026-04-28 14:25 | 37.35796 | -121.92653 | 53 ft | 20 kts | 140° |
| 2026-04-28 14:25 | 37.35683 | -121.92531 | 54 ft | 21 kts | 138° |
| 2026-04-28 14:25 | 37.35577 | -121.92413 | 55 ft | 15 kts | 138° |
| 2026-04-28 14:26 | 37.35524 | -121.92344 | 56 ft | 10 kts | 111° |
| 2026-04-28 14:26 | 37.35553 | -121.92265 | 56 ft | 11 kts | 47° |
| 2026-04-28 14:26 | 37.35595 | -121.92248 | 56 ft | 8 kts | 319° |
| 2026-04-28 14:26 | 37.35810 | -121.92485 | 54 ft | 85 kts | 319° |
| 2026-04-28 14:27 | 37.36449 | -121.93190 | 209 ft | 145 kts | 318° |
| 2026-04-28 14:27 | 37.37220 | -121.94003 | 1000 ft | 152 kts | 321° |
| 2026-04-28 14:27 | 37.38103 | -121.94911 | 1547 ft | 182 kts | 321° |
| 2026-04-28 14:27 | 37.39111 | -121.95954 | 2490 ft | 195 kts | 320° |
| 2026-04-28 14:28 | 37.40116 | -121.97051 | 3607 ft | 198 kts | 320° |
| 2026-04-28 14:28 | 37.41322 | -121.97885 | 4498 ft | 211 kts | 351° |
| 2026-04-28 14:28 | 37.42760 | -121.97600 | 4910 ft | 213 kts | 31° |
| 2026-04-28 14:28 | 37.43709 | -121.96235 | 5017 ft | 211 kts | 70° |
| 2026-04-28 14:29 | 37.43692 | -121.94428 | 5017 ft | 210 kts | 114° |
| 2026-04-28 14:29 | 37.42880 | -121.92911 | 5019 ft | 211 kts | 127° |
| 2026-04-28 14:29 | 37.41985 | -121.91441 | 5010 ft | 212 kts | 126° |
| 2026-04-28 14:29 | 37.41095 | -121.89962 | 5101 ft | 209 kts | 126° |
| 2026-04-28 14:30 | 37.40199 | -121.88473 | 5446 ft | 231 kts | 126° |
| 2026-04-28 14:30 | 37.39228 | -121.86859 | 6969 ft | 235 kts | 126° |
| 2026-04-28 14:30 | 37.38253 | -121.85238 | 8309 ft | 246 kts | 126° |
| 2026-04-28 14:30 | 37.37216 | -121.83514 | 9554 ft | 259 kts | 126° |
| 2026-04-28 14:31 | 37.36123 | -121.81699 | 10881 ft | 268 kts | 126° |
| 2026-04-28 14:31 | 37.34896 | -121.79936 | 12101 ft | 279 kts | 139° |
| 2026-04-28 14:31 | 37.33262 | -121.78310 | 12446 ft | 323 kts | 143° |
| 2026-04-28 14:31 | 37.31376 | -121.76556 | 12944 ft | 354 kts | 145° |
| 2026-04-28 14:32 | 37.29107 | -121.75227 | 13880 ft | 365 kts | 169° |
| 2026-04-28 14:32 | 37.26620 | -121.75243 | 14966 ft | 366 kts | 195° |
| 2026-04-28 14:32 | 37.24377 | -121.76595 | 16090 ft | 363 kts | 221° |
| 2026-04-28 14:32 | 37.22825 | -121.79039 | 17241 ft | 359 kts | 246° |
| 2026-04-28 14:33 | 37.22280 | -121.82024 | 18390 ft | 357 kts | 267° |
| 2026-04-28 14:33 | 37.22488 | -121.85110 | 19341 ft | 362 kts | 281° |
| 2026-04-28 14:33 | 37.23346 | -121.88059 | 20249 ft | 369 kts | 296° |
| 2026-04-28 14:33 | 37.24862 | -121.90698 | 21074 ft | 378 kts | 311° |
| 2026-04-28 14:34 | 37.29548 | -121.93874 | 22696 ft | 402 kts | 345° |
| 2026-04-28 14:34 | 37.32376 | -121.94172 | 23394 ft | 412 kts | 352° |
| 2026-04-28 14:34 | 37.35249 | -121.94351 | 24052 ft | 417 kts | 353° |
| 2026-04-28 14:35 | 37.38134 | -121.94546 | 24875 ft | 417 kts | 352° |
| 2026-04-28 14:35 | 37.41035 | -121.94791 | 25617 ft | 419 kts | 352° |
| 2026-04-28 14:35 | 37.43946 | -121.95045 | 26258 ft | 423 kts | 352° |
| 2026-04-28 14:35 | 37.46913 | -121.95304 | 26809 ft | 428 kts | 352° |
| 2026-04-28 14:36 | 37.49871 | -121.95561 | 27421 ft | 431 kts | 352° |
| 2026-04-28 14:36 | 37.52893 | -121.95824 | 27990 ft | 433 kts | 353° |
| 2026-04-28 14:36 | 37.55900 | -121.96086 | 28548 ft | 435 kts | 353° |
| 2026-04-28 14:36 | 37.58921 | -121.96350 | 29049 ft | 437 kts | 354° |
| 2026-04-28 14:37 | 37.61935 | -121.96613 | 29497 ft | 440 kts | 354° |
| 2026-04-28 14:37 | 37.65012 | -121.96877 | 29967 ft | 442 kts | 354° |
| 2026-04-28 14:37 | 37.68059 | -121.97137 | 30516 ft | 441 kts | 354° |
| 2026-04-28 14:37 | 37.71111 | -121.97398 | 31073 ft | 440 kts | 354° |
| 2026-04-28 14:38 | 37.74145 | -121.97657 | 31602 ft | 438 kts | 354° |
| 2026-04-28 14:38 | 37.77229 | -121.97922 | 32103 ft | 438 kts | 354° |
| 2026-04-28 14:38 | 37.80222 | -121.98179 | 32568 ft | 437 kts | 354° |
| 2026-04-28 14:38 | 37.83256 | -121.98439 | 33017 ft | 437 kts | 354° |
| 2026-04-28 14:39 | 37.86303 | -121.98701 | 33445 ft | 437 kts | 354° |
| 2026-04-28 14:39 | 37.89329 | -121.98962 | 33828 ft | 437 kts | 354° |
| 2026-04-28 14:39 | 37.92358 | -121.99223 | 34218 ft | 436 kts | 354° |
| 2026-04-28 14:39 | 37.95380 | -121.99483 | 34599 ft | 435 kts | 354° |
| 2026-04-28 14:40 | 37.98372 | -121.99742 | 34993 ft | 434 kts | 354° |
| 2026-04-28 14:40 | 38.00383 | -121.99915 | 35262 ft | 433 kts | 354° |
| 2026-04-28 14:40 | 38.04367 | -122.00260 | 35800 ft | 430 kts | 354° |
| 2026-04-28 14:40 | 38.07388 | -122.00522 | 36172 ft | 430 kts | 354° |
| 2026-04-28 14:41 | 38.10332 | -122.00777 | 36560 ft | 430 kts | 354° |
| 2026-04-28 14:41 | 38.13331 | -122.01038 | 36961 ft | 429 kts | 354° |
| 2026-04-28 14:41 | 38.16324 | -122.01298 | 37330 ft | 428 kts | 354° |
| 2026-04-28 14:41 | 38.19289 | -122.01555 | 37658 ft | 428 kts | 354° |
| 2026-04-28 14:42 | 38.22239 | -122.01811 | 37946 ft | 428 kts | 354° |
| 2026-04-28 14:42 | 38.25212 | -122.02071 | 38240 ft | 428 kts | 354° |
| 2026-04-28 14:42 | 38.28209 | -122.02331 | 38512 ft | 427 kts | 354° |
| 2026-04-28 14:42 | 38.31157 | -122.02589 | 38754 ft | 428 kts | 354° |
| 2026-04-28 14:43 | 38.34152 | -122.02901 | 38970 ft | 428 kts | 353° |
| 2026-04-28 14:43 | 38.37096 | -122.03243 | 39216 ft | 428 kts | 353° |
| 2026-04-28 14:43 | 38.40065 | -122.03587 | 39437 ft | 428 kts | 353° |
| 2026-04-28 14:43 | 38.43036 | -122.03931 | 39626 ft | 429 kts | 353° |
| 2026-04-28 14:44 | 38.45977 | -122.04271 | 39787 ft | 430 kts | 353° |
| 2026-04-28 14:44 | 38.48950 | -122.04615 | 39962 ft | 430 kts | 353° |
| 2026-04-28 14:44 | 38.51962 | -122.04964 | 40149 ft | 430 kts | 353° |
| 2026-04-28 14:45 | 38.57977 | -122.05662 | 40165 ft | 438 kts | 353° |
| 2026-04-28 14:45 | 38.64077 | -122.06370 | 40166 ft | 444 kts | 353° |
| 2026-04-28 14:46 | 38.70268 | -122.07090 | 40157 ft | 450 kts | 353° |
| 2026-04-28 14:46 | 38.76527 | -122.07818 | 40149 ft | 454 kts | 354° |
| 2026-04-28 14:47 | 38.82826 | -122.08551 | 40173 ft | 453 kts | 354° |
| 2026-04-28 14:47 | 38.89092 | -122.09282 | 40169 ft | 452 kts | 354° |
| 2026-04-28 14:48 | 38.95326 | -122.10010 | 40163 ft | 451 kts | 354° |
| 2026-04-28 14:48 | 39.01603 | -122.10745 | 40161 ft | 451 kts | 354° |
| 2026-04-28 14:49 | 39.07861 | -122.11479 | 40165 ft | 451 kts | 354° |
| 2026-04-28 14:49 | 39.14114 | -122.12213 | 40165 ft | 451 kts | 354° |
| 2026-04-28 14:50 | 39.20322 | -122.12944 | 40165 ft | 450 kts | 354° |
| 2026-04-28 14:50 | 39.26546 | -122.13678 | 40171 ft | 449 kts | 354° |
| 2026-04-28 14:51 | 39.32784 | -122.14414 | 40178 ft | 449 kts | 354° |
| 2026-04-28 14:51 | 39.38996 | -122.15150 | 40167 ft | 448 kts | 354° |
| 2026-04-28 14:52 | 39.45200 | -122.15884 | 40166 ft | 447 kts | 354° |
| 2026-04-28 14:52 | 39.51394 | -122.16621 | 40163 ft | 446 kts | 354° |
| 2026-04-28 14:53 | 39.57582 | -122.17356 | 40161 ft | 447 kts | 354° |
| 2026-04-28 14:53 | 39.63757 | -122.18092 | 40166 ft | 446 kts | 355° |
| 2026-04-28 14:54 | 39.69916 | -122.18828 | 40158 ft | 445 kts | 355° |
| 2026-04-28 14:54 | 39.76066 | -122.19563 | 40156 ft | 444 kts | 355° |
| 2026-04-28 14:55 | 39.82249 | -122.20304 | 40156 ft | 445 kts | 355° |
| 2026-04-28 14:55 | 39.88393 | -122.21042 | 40156 ft | 445 kts | 355° |
| 2026-04-28 14:56 | 39.94590 | -122.21787 | 40157 ft | 444 kts | 355° |
| 2026-04-28 14:56 | 40.00727 | -122.22527 | 40154 ft | 443 kts | 355° |
| 2026-04-28 14:57 | 40.06847 | -122.23263 | 40155 ft | 442 kts | 356° |
| 2026-04-28 14:57 | 40.12949 | -122.22908 | 40150 ft | 441 kts | 9° |
| 2026-04-28 14:58 | 40.18996 | -122.21452 | 40150 ft | 440 kts | 10° |
| 2026-04-28 14:58 | 40.25005 | -122.20004 | 40150 ft | 439 kts | 10° |
| 2026-04-28 14:59 | 40.30976 | -122.18563 | 40158 ft | 438 kts | 10° |
| 2026-04-28 14:59 | 40.36985 | -122.17110 | 40156 ft | 437 kts | 10° |
| 2026-04-28 15:00 | 40.42948 | -122.15666 | 40151 ft | 436 kts | 10° |
| 2026-04-28 15:00 | 40.48872 | -122.14229 | 40151 ft | 435 kts | 10° |
| 2026-04-28 15:01 | 40.54825 | -122.12782 | 40161 ft | 434 kts | 10° |
| 2026-04-28 15:01 | 40.60773 | -122.11334 | 40143 ft | 435 kts | 10° |
| 2026-04-28 15:02 | 40.66701 | -122.09888 | 40160 ft | 432 kts | 10° |
| 2026-04-28 15:02 | 40.72582 | -122.08450 | 40169 ft | 431 kts | 10° |
| 2026-04-28 15:03 | 40.78479 | -122.07008 | 40182 ft | 430 kts | 10° |
| 2026-04-28 15:03 | 40.84376 | -122.05561 | 40186 ft | 430 kts | 10° |
| 2026-04-28 15:04 | 40.90208 | -122.04128 | 40174 ft | 428 kts | 10° |
| 2026-04-28 15:04 | 40.96087 | -122.02682 | 40173 ft | 427 kts | 10° |
| 2026-04-28 15:05 | 41.01884 | -122.01252 | 40167 ft | 425 kts | 11° |
| 2026-04-28 15:05 | 41.07705 | -121.99815 | 40166 ft | 425 kts | 11° |
| 2026-04-28 15:06 | 41.13530 | -121.98373 | 40178 ft | 425 kts | 11° |
| 2026-04-28 15:06 | 41.19330 | -121.96935 | 40157 ft | 424 kts | 10° |
| 2026-04-28 15:07 | 41.25147 | -121.95491 | 40171 ft | 424 kts | 11° |
| 2026-04-28 15:07 | 41.30933 | -121.94051 | 40169 ft | 422 kts | 11° |
| 2026-04-28 15:08 | 41.36704 | -121.92613 | 40174 ft | 422 kts | 10° |
| 2026-04-28 15:08 | 41.42471 | -121.91174 | 40165 ft | 422 kts | 10° |
| 2026-04-28 15:09 | 41.48209 | -121.89738 | 40170 ft | 421 kts | 10° |
| 2026-04-28 15:09 | 41.53969 | -121.88295 | 40162 ft | 421 kts | 10° |
| 2026-04-28 15:10 | 41.59705 | -121.86855 | 40171 ft | 420 kts | 11° |
| 2026-04-28 15:10 | 41.65441 | -121.85413 | 40179 ft | 420 kts | 10° |
| 2026-04-28 15:11 | 41.71183 | -121.83965 | 40178 ft | 420 kts | 10° |
| 2026-04-28 15:11 | 41.76918 | -121.82518 | 40186 ft | 420 kts | 11° |
| 2026-04-28 15:12 | 41.82658 | -121.81067 | 40189 ft | 419 kts | 11° |
| 2026-04-28 15:12 | 41.88397 | -121.79614 | 40185 ft | 420 kts | 11° |
| 2026-04-28 15:13 | 41.94105 | -121.78165 | 40180 ft | 419 kts | 11° |
| 2026-04-28 15:13 | 41.99826 | -121.76711 | 40177 ft | 418 kts | 10° |
| 2026-04-28 15:14 | 42.05535 | -121.75257 | 40166 ft | 417 kts | 11° |
| 2026-04-28 15:14 | 42.11225 | -121.73805 | 40156 ft | 418 kts | 11° |
| 2026-04-28 15:15 | 42.17017 | -121.73261 | 40157 ft | 418 kts | 357° |
| 2026-04-28 15:15 | 42.22792 | -121.74441 | 40166 ft | 419 kts | 352° |
| 2026-04-28 15:16 | 42.28526 | -121.75745 | 40149 ft | 419 kts | 352° |
| 2026-04-28 15:16 | 42.34253 | -121.77049 | 40188 ft | 418 kts | 352° |
| 2026-04-28 15:17 | 42.39995 | -121.78359 | 40195 ft | 417 kts | 352° |
| 2026-04-28 15:17 | 42.45703 | -121.79664 | 40198 ft | 418 kts | 352° |
| 2026-04-28 15:18 | 42.51418 | -121.80971 | 40186 ft | 416 kts | 352° |
| 2026-04-28 15:18 | 42.57120 | -121.82279 | 40182 ft | 416 kts | 352° |
| 2026-04-28 15:19 | 42.62843 | -121.83593 | 40185 ft | 415 kts | 352° |
| 2026-04-28 15:19 | 42.68518 | -121.84899 | 40185 ft | 414 kts | 352° |
| 2026-04-28 15:20 | 42.74179 | -121.86204 | 40187 ft | 414 kts | 352° |
| 2026-04-28 15:20 | 42.79853 | -121.87514 | 40192 ft | 413 kts | 352° |
| 2026-04-28 15:21 | 42.85531 | -121.88827 | 40191 ft | 412 kts | 352° |
| 2026-04-28 15:21 | 42.91165 | -121.90133 | 40187 ft | 411 kts | 352° |
| 2026-04-28 15:22 | 42.96793 | -121.91440 | 40186 ft | 411 kts | 352° |
| 2026-04-28 15:22 | 43.02411 | -121.92746 | 40174 ft | 411 kts | 352° |
| 2026-04-28 15:23 | 43.08063 | -121.94064 | 40152 ft | 409 kts | 352° |
| 2026-04-28 15:23 | 43.13669 | -121.95372 | 40148 ft | 408 kts | 352° |
| 2026-04-28 15:24 | 43.19269 | -121.96681 | 40142 ft | 409 kts | 352° |
| 2026-04-28 15:24 | 43.24836 | -121.97985 | 40137 ft | 409 kts | 352° |
| 2026-04-28 15:25 | 43.30432 | -121.99299 | 40150 ft | 408 kts | 352° |
| 2026-04-28 15:25 | 43.36018 | -122.00613 | 40151 ft | 407 kts | 352° |
| 2026-04-28 15:26 | 43.41608 | -122.01929 | 40158 ft | 407 kts | 352° |
| 2026-04-28 15:26 | 43.47181 | -122.03245 | 40167 ft | 408 kts | 352° |
| 2026-04-28 15:27 | 43.52756 | -122.04563 | 40165 ft | 408 kts | 352° |
| 2026-04-28 15:27 | 43.58346 | -122.05888 | 40166 ft | 407 kts | 352° |
| 2026-04-28 15:28 | 43.63938 | -122.07215 | 40164 ft | 407 kts | 352° |
| 2026-04-28 15:28 | 43.69505 | -122.08539 | 40172 ft | 407 kts | 352° |
| 2026-04-28 15:29 | 43.75073 | -122.09865 | 40170 ft | 407 kts | 352° |
| 2026-04-28 15:29 | 43.80640 | -122.11194 | 40170 ft | 407 kts | 352° |
| 2026-04-28 15:30 | 43.86205 | -122.12524 | 40179 ft | 406 kts | 352° |
| 2026-04-28 15:30 | 43.91792 | -122.13863 | 40173 ft | 406 kts | 352° |
| 2026-04-28 15:31 | 43.97341 | -122.15195 | 40163 ft | 405 kts | 351° |
| 2026-04-28 15:31 | 44.02877 | -122.16526 | 40166 ft | 405 kts | 351° |
| 2026-04-28 15:32 | 44.08409 | -122.17859 | 40173 ft | 405 kts | 351° |
| 2026-04-28 15:32 | 44.13942 | -122.19195 | 40170 ft | 405 kts | 352° |
| 2026-04-28 15:33 | 44.19488 | -122.20536 | 40169 ft | 405 kts | 352° |
| 2026-04-28 15:33 | 44.25039 | -122.21881 | 40180 ft | 405 kts | 352° |
| 2026-04-28 15:34 | 44.30563 | -122.23222 | 40178 ft | 404 kts | 352° |
| 2026-04-28 15:34 | 44.36121 | -122.24573 | 40176 ft | 404 kts | 352° |
| 2026-04-28 15:35 | 44.41656 | -122.25923 | 40180 ft | 404 kts | 351° |
| 2026-04-28 15:35 | 44.49931 | -122.27944 | 40178 ft | 404 kts | 351° |
| 2026-04-28 15:36 | 44.55463 | -122.29299 | 40176 ft | 404 kts | 351° |
| 2026-04-28 15:36 | 44.61004 | -122.30659 | 40180 ft | 404 kts | 351° |
| 2026-04-28 15:37 | 44.66528 | -122.32017 | 40182 ft | 404 kts | 351° |
| 2026-04-28 15:37 | 44.72071 | -122.33382 | 40185 ft | 404 kts | 351° |
| 2026-04-28 15:38 | 44.77593 | -122.34745 | 40187 ft | 404 kts | 351° |
| 2026-04-28 15:38 | 44.83137 | -122.36116 | 40185 ft | 404 kts | 351° |
| 2026-04-28 15:39 | 44.88665 | -122.37485 | 40182 ft | 404 kts | 351° |
| 2026-04-28 15:39 | 44.94197 | -122.38859 | 40189 ft | 404 kts | 351° |
| 2026-04-28 15:40 | 44.99692 | -122.40247 | 40185 ft | 404 kts | 351° |
| 2026-04-28 15:40 | 45.05233 | -122.41655 | 40195 ft | 404 kts | 350° |
| 2026-04-28 15:41 | 45.10754 | -122.43053 | 40205 ft | 404 kts | 351° |
| 2026-04-28 15:41 | 45.16314 | -122.44437 | 40218 ft | 404 kts | 350° |
| 2026-04-28 15:42 | 45.21837 | -122.45815 | 40225 ft | 404 kts | 350° |
| 2026-04-28 15:42 | 45.27354 | -122.47195 | 40228 ft | 404 kts | 350° |
| 2026-04-28 15:43 | 45.32892 | -122.48582 | 40233 ft | 404 kts | 351° |
| 2026-04-28 15:43 | 45.38426 | -122.49971 | 40236 ft | 404 kts | 350° |
| 2026-04-28 15:44 | 45.43944 | -122.51359 | 40240 ft | 404 kts | 350° |
| 2026-04-28 15:44 | 45.49470 | -122.52751 | 40240 ft | 404 kts | 350° |
| 2026-04-28 15:45 | 45.55001 | -122.54148 | 40241 ft | 405 kts | 350° |
| 2026-04-28 15:45 | 45.60539 | -122.55550 | 40241 ft | 405 kts | 350° |
| 2026-04-28 15:46 | 45.66087 | -122.56956 | 40241 ft | 405 kts | 350° |
| 2026-04-28 15:46 | 45.71600 | -122.58356 | 40241 ft | 405 kts | 349° |
| 2026-04-28 15:47 | 45.77155 | -122.59770 | 40239 ft | 405 kts | 349° |
| 2026-04-28 15:47 | 45.82704 | -122.61160 | 40235 ft | 405 kts | 350° |
| 2026-04-28 15:48 | 45.88231 | -122.62530 | 40225 ft | 405 kts | 349° |
| 2026-04-28 15:48 | 45.91043 | -122.63228 | 40012 ft | 406 kts | 349° |
| 2026-04-28 15:48 | 45.93803 | -122.63913 | 39502 ft | 400 kts | 349° |
| 2026-04-28 15:49 | 45.96516 | -122.64587 | 38976 ft | 393 kts | 349° |
| 2026-04-28 15:49 | 45.99152 | -122.65242 | 38472 ft | 387 kts | 349° |
| 2026-04-28 15:49 | 46.01802 | -122.65901 | 37973 ft | 382 kts | 349° |
| 2026-04-28 15:49 | 46.04412 | -122.66550 | 37485 ft | 383 kts | 349° |
| 2026-04-28 15:50 | 46.07017 | -122.67200 | 37013 ft | 385 kts | 349° |
| 2026-04-28 15:50 | 46.09650 | -122.67859 | 36503 ft | 387 kts | 349° |
| 2026-04-28 15:50 | 46.12310 | -122.68527 | 35999 ft | 389 kts | 349° |
| 2026-04-28 15:50 | 46.14979 | -122.69199 | 35476 ft | 391 kts | 349° |
| 2026-04-28 15:51 | 46.17659 | -122.69873 | 34959 ft | 393 kts | 349° |
| 2026-04-28 15:51 | 46.20379 | -122.70559 | 34429 ft | 396 kts | 348° |
| 2026-04-28 15:51 | 46.23098 | -122.71245 | 33909 ft | 399 kts | 349° |
| 2026-04-28 15:51 | 46.25814 | -122.71931 | 33375 ft | 401 kts | 348° |
| 2026-04-28 15:52 | 46.28552 | -122.72623 | 32844 ft | 403 kts | 348° |
| 2026-04-28 15:52 | 46.31327 | -122.73325 | 32304 ft | 405 kts | 349° |
| 2026-04-28 15:52 | 46.34108 | -122.74030 | 31761 ft | 407 kts | 348° |
| 2026-04-28 15:52 | 46.36899 | -122.74737 | 31227 ft | 409 kts | 348° |
| 2026-04-28 15:53 | 46.39676 | -122.75442 | 30686 ft | 411 kts | 349° |
| 2026-04-28 15:53 | 46.42507 | -122.76161 | 30142 ft | 412 kts | 349° |
| 2026-04-28 15:53 | 46.45335 | -122.76880 | 29597 ft | 414 kts | 348° |
| 2026-04-28 15:53 | 46.48181 | -122.77605 | 29045 ft | 415 kts | 348° |
| 2026-04-28 15:54 | 46.51015 | -122.78326 | 28491 ft | 414 kts | 349° |
| 2026-04-28 15:54 | 46.53803 | -122.79037 | 27957 ft | 411 kts | 348° |
| 2026-04-28 15:54 | 46.56628 | -122.79758 | 27418 ft | 408 kts | 349° |
| 2026-04-28 15:54 | 46.59404 | -122.80467 | 26873 ft | 405 kts | 349° |
| 2026-04-28 15:55 | 46.62152 | -122.81171 | 26342 ft | 402 kts | 349° |
| 2026-04-28 15:55 | 46.64903 | -122.81875 | 25810 ft | 400 kts | 349° |
| 2026-04-28 15:55 | 46.67634 | -122.82575 | 25282 ft | 397 kts | 348° |
| 2026-04-28 15:55 | 46.70321 | -122.83264 | 24763 ft | 394 kts | 349° |
| 2026-04-28 15:56 | 46.73029 | -122.83960 | 24241 ft | 389 kts | 348° |
| 2026-04-28 15:56 | 46.75647 | -122.84632 | 23727 ft | 383 kts | 348° |
| 2026-04-28 15:56 | 46.78226 | -122.85295 | 23233 ft | 377 kts | 348° |
| 2026-04-28 15:56 | 46.80798 | -122.85957 | 22729 ft | 371 kts | 348° |
| 2026-04-28 15:57 | 46.83292 | -122.86601 | 22247 ft | 365 kts | 348° |
| 2026-04-28 15:57 | 46.85794 | -122.87246 | 21761 ft | 359 kts | 348° |
| 2026-04-28 15:57 | 46.88202 | -122.87868 | 21288 ft | 353 kts | 348° |
| 2026-04-28 15:57 | 46.90614 | -122.88491 | 20823 ft | 347 kts | 348° |
| 2026-04-28 15:58 | 46.92935 | -122.89092 | 20380 ft | 341 kts | 348° |
| 2026-04-28 15:58 | 46.95287 | -122.89385 | 19914 ft | 338 kts | 1° |
| 2026-04-28 15:58 | 46.97575 | -122.88702 | 19436 ft | 339 kts | 17° |
| 2026-04-28 15:58 | 46.99639 | -122.87022 | 18947 ft | 343 kts | 34° |
| 2026-04-28 15:59 | 47.01439 | -122.84783 | 18444 ft | 343 kts | 38° |
| 2026-04-28 15:59 | 47.03254 | -122.82425 | 17969 ft | 351 kts | 37° |
| 2026-04-28 15:59 | 47.05134 | -122.80164 | 17748 ft | 351 kts | 34° |
| 2026-04-28 15:59 | 47.07102 | -122.78082 | 17780 ft | 345 kts | 34° |
| 2026-04-28 16:00 | 47.08963 | -122.75777 | 16786 ft | 366 kts | 39° |
| 2026-04-28 16:00 | 47.10837 | -122.73298 | 16090 ft | 363 kts | 38° |
| 2026-04-28 16:00 | 47.12699 | -122.70846 | 15495 ft | 352 kts | 39° |
| 2026-04-28 16:00 | 47.14482 | -122.68496 | 15030 ft | 338 kts | 39° |
| 2026-04-28 16:01 | 47.16198 | -122.66240 | 14587 ft | 327 kts | 38° |
| 2026-04-28 16:01 | 47.17856 | -122.64065 | 14160 ft | 317 kts | 39° |
| 2026-04-28 16:01 | 47.19492 | -122.61925 | 13740 ft | 310 kts | 39° |
| 2026-04-28 16:01 | 47.21080 | -122.59855 | 13335 ft | 303 kts | 38° |
| 2026-04-28 16:02 | 47.22834 | -122.58257 | 12929 ft | 294 kts | 17° |
| 2026-04-28 16:02 | 47.24810 | -122.57683 | 12499 ft | 288 kts | 4° |
| 2026-04-28 16:02 | 47.26798 | -122.57381 | 12061 ft | 286 kts | 4° |
| 2026-04-28 16:02 | 47.28755 | -122.57072 | 11722 ft | 287 kts | 4° |
| 2026-04-28 16:03 | 47.30737 | -122.56757 | 11257 ft | 287 kts | 4° |
| 2026-04-28 16:03 | 47.32718 | -122.56443 | 10862 ft | 283 kts | 4° |
| 2026-04-28 16:03 | 47.34662 | -122.56134 | 10457 ft | 280 kts | 4° |
| 2026-04-28 16:03 | 47.36581 | -122.55828 | 10067 ft | 277 kts | 4° |
| 2026-04-28 16:04 | 47.38498 | -122.55523 | 9670 ft | 276 kts | 4° |
| 2026-04-28 16:04 | 47.40396 | -122.55221 | 9279 ft | 274 kts | 4° |
| 2026-04-28 16:04 | 47.42274 | -122.54921 | 8893 ft | 271 kts | 4° |
| 2026-04-28 16:04 | 47.44131 | -122.54624 | 8513 ft | 267 kts | 4° |
| 2026-04-28 16:05 | 47.45961 | -122.54365 | 8135 ft | 263 kts | 359° |
| 2026-04-28 16:05 | 47.47766 | -122.54686 | 7761 ft | 258 kts | 348° |
| 2026-04-28 16:05 | 47.49512 | -122.55184 | 7398 ft | 255 kts | 348° |
| 2026-04-28 16:05 | 47.51245 | -122.55667 | 7041 ft | 251 kts | 348° |
| 2026-04-28 16:06 | 47.52946 | -122.56140 | 6685 ft | 248 kts | 348° |
| 2026-04-28 16:06 | 47.54634 | -122.56610 | 6333 ft | 245 kts | 348° |
| 2026-04-28 16:06 | 47.56287 | -122.57070 | 6015 ft | 235 kts | 348° |
| 2026-04-28 16:06 | 47.57835 | -122.57500 | 5677 ft | 221 kts | 349° |
| 2026-04-28 16:07 | 47.59314 | -122.57911 | 5379 ft | 212 kts | 349° |
| 2026-04-28 16:07 | 47.60752 | -122.58312 | 5073 ft | 212 kts | 349° |
| 2026-04-28 16:07 | 47.63637 | -122.58454 | 4460 ft | 211 kts | 21° |
| 2026-04-28 16:08 | 47.64957 | -122.57526 | 4168 ft | 212 kts | 27° |
| 2026-04-28 16:08 | 47.66288 | -122.56563 | 3853 ft | 211 kts | 27° |
| 2026-04-28 16:08 | 47.67419 | -122.55286 | 3544 ft | 198 kts | 52° |
| 2026-04-28 16:09 | 47.67937 | -122.51657 | 2926 ft | 183 kts | 98° |
| 2026-04-28 16:09 | 47.67749 | -122.49846 | 2677 ft | 177 kts | 100° |
| 2026-04-28 16:09 | 47.67562 | -122.48028 | 2417 ft | 180 kts | 100° |
| 2026-04-28 16:10 | 47.66404 | -122.44917 | 2210 ft | 177 kts | 135° |
| 2026-04-28 16:10 | 47.65505 | -122.43636 | 2212 ft | 177 kts | 135° |
| 2026-04-28 16:10 | 47.63761 | -122.41076 | 2211 ft | 177 kts | 134° |
| 2026-04-28 16:11 | 47.62047 | -122.38552 | 1881 ft | 162 kts | 134° |
| 2026-04-28 16:11 | 47.60376 | -122.36493 | 1482 ft | 153 kts | 147° |
| 2026-04-28 16:12 | 47.58750 | -122.35107 | 1134 ft | 128 kts | 149° |
| 2026-04-28 16:12 | 47.58013 | -122.34481 | 994 ft | 119 kts | 150° |
| 2026-04-28 16:13 | 47.56571 | -122.33261 | 638 ft | 119 kts | 151° |
| 2026-04-28 16:13 | 47.55848 | -122.32653 | 487 ft | 118 kts | 150° |
| 2026-04-28 16:13 | 47.54444 | -122.31463 | 148 ft | 114 kts | 151° |
| 2026-04-28 16:14 | 47.53202 | -122.30411 | 23 ft | 66 kts | 150° |
| 2026-04-28 16:14 | 47.52708 | -122.30000 | 23 ft | 13 kts | 142° |
| 2026-04-28 16:15 | 47.52778 | -122.29848 | 23 ft | 12 kts | 14° |
| 2026-04-28 16:15 | 47.52846 | -122.29828 | 23 ft | 10 kts | 359° |
| 2026-04-28 16:15 | 47.52926 | -122.29890 | 23 ft | 15 kts | 332° |
| 2026-04-28 16:16 | 47.53166 | -122.30091 | 23 ft | 23 kts | 330° |
| 2026-04-28 16:16 | 47.53319 | -122.30222 | 23 ft | 25 kts | 331° |
| 2026-04-28 16:17 | 47.53587 | -122.30454 | 23 ft | 16 kts | 322° |
| 2026-04-28 16:17 | 47.53688 | -122.30559 | 23 ft | 15 kts | 332° |
| 2026-04-28 16:17 | 47.53766 | -122.30608 | 23 ft | 10 kts | 30° |
| 2026-04-28 16:17 | 47.53802 | -122.30508 | 23 ft | 7 kts | 80° |
| 2026-04-28 16:18 | 47.53782 | -122.30492 | 23 ft | 4 kts | 216° |
| 2026-04-28 16:18 | 47.53777 | -122.30515 | 23 ft | 0 kts | 272° |